createdAt,value
2023-04-09T00:01:48.722Z,18.00
2023-04-09T00:04:15.378Z,12.57
2023-04-09T00:06:41.962Z,10.02
2023-04-09T00:09:08.508Z,9.73
2023-04-09T00:11:38.601Z,9.57
2023-04-09T00:14:05.155Z,13.57
2023-04-09T00:16:34.994Z,10.88
2023-04-09T00:19:02.071Z,13.57
2023-04-09T00:21:37.257Z,11.65
2023-04-09T00:24:09.346Z,11.30
2023-04-09T00:26:40.315Z,10.40
2023-04-09T00:29:11.959Z,10.90
2023-04-09T00:31:38.595Z,10.05
2023-04-09T00:34:05.210Z,9.35
2023-04-09T00:36:39.615Z,8.90
2023-04-09T00:39:06.525Z,7.93
2023-04-09T00:41:33.123Z,7.22
2023-04-09T00:43:59.747Z,7.47
2023-04-09T00:46:26.365Z,8.25
2023-04-09T00:48:53.785Z,7.35
2023-04-09T00:51:20.686Z,10.05
2023-04-09T00:53:51.623Z,11.13
2023-04-09T00:56:18.842Z,11.52
2023-04-09T00:58:45.477Z,10.50
2023-04-09T01:01:12.120Z,9.32
2023-04-09T01:03:44.353Z,7.75
2023-04-09T01:06:11.025Z,9.40
2023-04-09T01:09:02.523Z,8.18
2023-04-09T01:11:41.351Z,7.55
2023-04-09T01:14:19.986Z,7.97
2023-04-09T01:16:48.381Z,8.07
2023-04-09T01:19:21.719Z,9.35
2023-04-09T01:21:48.716Z,9.50
2023-04-09T01:24:15.285Z,9.50
2023-04-09T01:26:44.992Z,10.05
2023-04-09T01:29:12.617Z,8.15
2023-04-09T01:31:39.658Z,7.68
2023-04-09T01:34:11.404Z,12.00
2023-04-09T01:36:39.903Z,9.77
2023-04-09T01:39:06.693Z,9.65
2023-04-09T01:41:34.435Z,10.45
2023-04-09T01:44:02.549Z,9.25
2023-04-09T01:46:29.711Z,11.73
2023-04-09T01:48:56.537Z,8.25
2023-04-09T01:51:23.304Z,12.73
2023-04-09T01:53:54.700Z,9.45
2023-04-09T01:56:21.260Z,11.32
2023-04-09T01:58:48.037Z,11.50
2023-04-09T02:01:20.958Z,8.57
2023-04-09T02:03:51.610Z,9.32
2023-04-09T02:06:31.802Z,11.13
2023-04-09T02:09:01.619Z,8.75
2023-04-09T02:11:30.137Z,8.07
2023-04-09T02:14:07.713Z,8.82
2023-04-09T02:16:36.122Z,9.15
2023-04-09T02:19:02.871Z,9.25
2023-04-09T02:21:29.673Z,10.63
2023-04-09T02:24:00.644Z,10.15
2023-04-09T02:26:27.604Z,11.82
2023-04-09T02:28:54.579Z,12.75
2023-04-09T02:31:24.066Z,10.88
2023-04-09T02:33:51.191Z,11.77
2023-04-09T02:36:17.946Z,10.45
2023-04-09T02:38:44.697Z,7.93
2023-04-09T02:41:11.345Z,8.38
2023-04-09T02:43:38.282Z,11.48
2023-04-09T02:46:05.054Z,8.48
2023-04-09T02:48:32.515Z,8.98
2023-04-09T02:50:59.235Z,10.93
2023-04-09T02:53:28.361Z,10.52
2023-04-09T02:55:55.059Z,6.53
2023-04-09T02:58:21.768Z,6.20
2023-04-09T03:00:48.499Z,11.07
2023-04-09T03:03:15.388Z,7.78
2023-04-09T03:05:42.290Z,8.88
2023-04-09T03:08:09.042Z,12.43
2023-04-09T03:10:35.804Z,12.48
2023-04-09T03:13:05.532Z,8.85
2023-04-09T03:15:32.531Z,8.63
2023-04-09T03:17:59.238Z,9.57
2023-04-09T03:20:34.463Z,10.38
2023-04-09T03:23:06.541Z,9.82
2023-04-09T03:25:34.011Z,8.57
2023-04-09T03:28:03.496Z,11.73
2023-04-09T03:30:31.110Z,8.90
2023-04-09T03:32:57.885Z,9.55
2023-04-09T03:35:24.674Z,7.47
2023-04-09T03:37:56.454Z,8.18
2023-04-09T03:40:29.921Z,7.70
2023-04-09T03:42:56.662Z,8.65
2023-04-09T03:45:23.358Z,9.07
2023-04-09T03:47:56.790Z,8.27
2023-04-09T03:52:51.291Z,10.20
2023-04-09T03:55:17.953Z,9.20
2023-04-09T03:57:50.260Z,6.90
2023-04-09T04:00:20.042Z,10.57
2023-04-09T04:02:47.936Z,7.35
2023-04-09T04:05:14.759Z,9.80
2023-04-09T04:07:41.474Z,8.45
2023-04-09T04:10:08.537Z,6.93
2023-04-09T04:12:35.230Z,8.45
2023-04-09T04:15:03.103Z,9.57
2023-04-09T04:17:29.915Z,7.28
2023-04-09T04:20:07.907Z,6.45
2023-04-09T04:22:34.751Z,5.65
2023-04-09T04:25:01.448Z,7.90
2023-04-09T04:27:28.149Z,6.38
2023-04-09T04:29:54.854Z,12.02
2023-04-09T04:32:23.382Z,11.05
2023-04-09T04:34:50.401Z,8.88
2023-04-09T04:37:17.403Z,7.18
2023-04-09T04:39:44.144Z,7.82
2023-04-09T04:42:10.853Z,8.52
2023-04-09T04:44:37.835Z,9.02
2023-04-09T04:47:04.495Z,9.40
2023-04-09T04:49:31.210Z,9.38
2023-04-09T04:51:57.981Z,12.68
2023-04-09T04:54:24.721Z,11.80
2023-04-09T04:56:51.449Z,6.30
2023-04-09T04:59:24.276Z,9.38
2023-04-09T05:01:54.216Z,7.85
2023-04-09T05:04:21.024Z,8.25
2023-04-09T05:06:47.728Z,7.70
2023-04-09T05:09:16.390Z,8.52
2023-04-09T05:11:43.157Z,7.82
2023-04-09T05:14:09.857Z,10.75
2023-04-09T05:16:36.611Z,8.30
2023-04-09T05:19:08.169Z,8.55
2023-04-09T05:21:39.677Z,7.65
2023-04-09T05:24:09.933Z,9.70
2023-04-09T05:26:37.321Z,8.57
2023-04-09T05:29:04.037Z,7.10
2023-04-09T05:31:33.787Z,7.03
2023-04-09T05:34:08.109Z,8.70
2023-04-09T05:36:34.799Z,8.05
2023-04-09T05:39:11.159Z,6.88
2023-04-09T05:41:37.896Z,8.25
2023-04-09T05:44:07.404Z,7.47
2023-04-09T05:46:34.151Z,7.00
2023-04-09T05:49:03.452Z,5.40
2023-04-09T05:51:32.323Z,6.00
2023-04-09T05:53:59.167Z,7.32
2023-04-09T05:56:25.930Z,10.38
2023-04-09T05:58:52.710Z,9.45
2023-04-09T06:01:19.380Z,8.60
2023-04-09T06:03:46.290Z,8.48
2023-04-09T06:06:13.361Z,8.25
2023-04-09T06:08:40.245Z,7.45
2023-04-09T06:11:10.122Z,8.70
2023-04-09T06:13:36.860Z,7.68
2023-04-09T06:16:07.263Z,7.43
2023-04-09T06:18:34.703Z,8.15
2023-04-09T06:21:05.482Z,7.95
2023-04-09T06:23:32.954Z,6.90
2023-04-09T06:25:59.944Z,8.52
2023-04-09T06:28:26.627Z,8.73
2023-04-09T06:30:56.889Z,7.88
2023-04-09T06:33:23.962Z,8.23
2023-04-09T06:35:50.867Z,9.60
2023-04-09T06:38:17.698Z,9.95
2023-04-09T06:40:44.858Z,6.80
2023-04-09T06:43:11.670Z,6.70
2023-04-09T06:45:41.124Z,7.63
2023-04-09T06:48:07.944Z,8.63
2023-04-09T06:50:34.712Z,8.18
2023-04-09T06:53:04.548Z,9.07
2023-04-09T06:55:31.308Z,7.97
2023-04-09T06:57:58.010Z,8.05
2023-04-09T07:00:27.386Z,7.55
2023-04-09T07:02:56.766Z,7.72
2023-04-09T07:05:26.433Z,9.55
2023-04-09T07:07:53.133Z,10.75
2023-04-09T07:10:20.008Z,8.18
2023-04-09T07:12:46.692Z,9.07
2023-04-09T07:15:13.442Z,9.52
2023-04-09T07:17:44.348Z,9.57
2023-04-09T07:20:11.374Z,10.63
2023-04-09T07:22:44.616Z,10.82
2023-04-09T07:25:11.458Z,10.63
2023-04-09T07:27:38.205Z,11.90
2023-04-09T07:30:05.084Z,10.45
2023-04-09T07:32:34.797Z,11.88
2023-04-09T07:35:02.105Z,11.52
2023-04-09T07:37:28.807Z,10.80
2023-04-09T07:39:55.508Z,8.70
2023-04-09T07:42:22.456Z,8.25
2023-04-09T07:44:49.369Z,9.40
2023-04-09T07:47:16.074Z,9.50
2023-04-09T07:49:42.886Z,8.25
2023-04-09T07:52:15.200Z,7.55
2023-04-09T07:54:41.877Z,9.50
2023-04-09T07:57:08.594Z,6.20
2023-04-09T07:59:35.472Z,8.85
2023-04-09T08:02:02.562Z,7.30
2023-04-09T08:04:29.573Z,5.60
2023-04-09T08:06:56.382Z,5.55
2023-04-09T08:09:23.287Z,6.00
2023-04-09T08:11:50.236Z,6.88
2023-04-09T08:14:17.182Z,7.93
2023-04-09T08:16:45.045Z,6.20
2023-04-09T08:19:12.201Z,7.40
2023-04-09T08:21:41.468Z,6.70
2023-04-09T08:24:08.196Z,6.18
2023-04-09T08:26:34.888Z,8.63
2023-04-09T08:29:02.339Z,6.75
2023-04-09T08:31:29.064Z,7.45
2023-04-09T08:33:55.884Z,7.35
2023-04-09T08:36:34.851Z,7.32
2023-04-09T08:39:09.848Z,6.68
2023-04-09T08:41:40.565Z,6.60
2023-04-09T08:44:07.282Z,8.45
2023-04-09T08:46:36.351Z,6.35
2023-04-09T08:49:03.311Z,6.82
2023-04-09T08:51:30.032Z,7.72
2023-04-09T08:53:57.738Z,7.35
2023-04-09T08:56:24.885Z,8.45
2023-04-09T08:58:51.920Z,7.40
2023-04-09T09:01:24.791Z,6.88
2023-04-09T09:03:57.615Z,7.25
2023-04-09T09:06:34.104Z,6.78
2023-04-09T09:09:07.125Z,7.82
2023-04-09T09:11:37.833Z,6.82
2023-04-09T09:14:11.070Z,7.32
2023-04-09T09:16:39.709Z,7.53
2023-04-09T09:19:06.626Z,6.57
2023-04-09T09:21:39.653Z,6.80
2023-04-09T09:24:16.667Z,6.40
2023-04-09T09:26:43.431Z,5.50
2023-04-09T09:29:10.187Z,6.13
2023-04-09T09:31:46.239Z,5.00
2023-04-09T09:34:18.553Z,5.60
2023-04-09T09:36:45.873Z,5.28
2023-04-09T09:39:14.640Z,9.50
2023-04-09T09:41:41.432Z,5.82
2023-04-09T09:44:09.007Z,8.18
2023-04-09T09:46:36.746Z,5.35
2023-04-09T09:49:15.072Z,5.47
2023-04-09T09:51:42.079Z,5.15
2023-04-09T09:54:08.988Z,5.07
2023-04-09T09:56:36.523Z,5.30
2023-04-09T09:59:22.190Z,4.15
2023-04-09T10:01:51.836Z,3.88
2023-04-09T10:04:19.465Z,5.22
2023-04-09T10:06:48.496Z,5.18
2023-04-09T10:09:15.610Z,4.78
2023-04-09T10:11:43.144Z,4.97
2023-04-09T10:14:09.996Z,5.03
2023-04-09T10:16:36.827Z,5.20
2023-04-09T10:19:03.625Z,4.13
2023-04-09T10:21:45.923Z,4.53
2023-04-09T10:24:12.836Z,4.32
2023-04-09T10:26:45.658Z,3.55
2023-04-09T10:29:13.165Z,3.17
2023-04-09T10:31:46.688Z,2.88
2023-04-09T10:34:22.333Z,4.88
2023-04-09T10:37:08.486Z,2.60
2023-04-09T10:39:39.607Z,3.72
2023-04-09T10:42:11.938Z,1.63
2023-04-09T10:44:39.782Z,2.70
2023-04-09T10:47:06.496Z,2.47
2023-04-09T10:49:38.354Z,2.17
2023-04-09T10:52:11.371Z,1.65
2023-04-09T10:54:40.929Z,1.52
2023-04-09T10:57:07.676Z,1.70
2023-04-09T10:59:38.217Z,1.77
2023-04-09T11:02:09.345Z,1.95
2023-04-09T11:04:51.538Z,1.90
2023-04-09T11:07:19.065Z,2.03
2023-04-09T11:09:45.823Z,2.30
2023-04-09T11:12:12.622Z,1.70
2023-04-09T11:14:39.395Z,1.35
2023-04-09T11:17:06.068Z,1.80
2023-04-09T11:19:36.108Z,2.08
2023-04-09T11:22:05.803Z,2.08
2023-04-09T11:24:44.708Z,1.85
2023-04-09T11:27:11.470Z,1.20
2023-04-09T11:29:38.293Z,1.35
2023-04-09T11:32:08.709Z,1.40
2023-04-09T11:34:35.478Z,1.98
2023-04-09T11:37:06.484Z,1.95
2023-04-09T11:39:37.467Z,2.63
2023-04-09T11:42:09.332Z,1.50
2023-04-09T11:44:36.020Z,1.20
2023-04-09T11:47:03.005Z,1.73
2023-04-09T11:49:38.422Z,1.30
2023-04-09T11:52:06.132Z,1.40
2023-04-09T11:54:35.677Z,1.02
2023-04-09T11:57:10.807Z,0.93
2023-04-09T11:59:38.570Z,1.10
2023-04-09T12:02:10.416Z,1.00
2023-04-09T12:04:37.249Z,1.33
2023-04-09T12:07:08.139Z,1.80
2023-04-09T12:09:34.816Z,1.15
2023-04-09T12:12:07.044Z,1.63
2023-04-09T12:14:34.999Z,1.60
2023-04-09T12:17:02.621Z,1.20
2023-04-09T12:19:29.357Z,2.08
2023-04-09T12:21:56.259Z,1.75
2023-04-09T12:24:23.762Z,1.88
2023-04-09T12:26:55.633Z,2.10
2023-04-09T12:29:22.338Z,2.58
2023-04-09T12:31:49.230Z,2.22
2023-04-09T12:34:16.018Z,2.25
2023-04-09T12:36:42.720Z,2.25
2023-04-09T12:39:09.498Z,2.78
2023-04-09T12:41:41.780Z,3.20
2023-04-09T12:44:08.510Z,3.30
2023-04-09T12:46:35.260Z,2.70
2023-04-09T12:49:02.412Z,3.47
2023-04-09T12:51:29.230Z,3.95
2023-04-09T12:54:03.439Z,3.90
2023-04-09T12:58:56.836Z,2.58
2023-04-09T13:01:23.574Z,3.10
2023-04-09T13:03:50.409Z,3.47
2023-04-09T13:06:17.307Z,3.15
2023-04-09T13:08:43.995Z,3.88
2023-04-09T13:11:10.665Z,3.72
2023-04-09T13:13:37.403Z,2.38
2023-04-09T13:16:05.157Z,3.13
2023-04-09T13:18:33.239Z,2.55
2023-04-09T13:20:59.953Z,2.53
2023-04-09T13:23:26.729Z,2.60
2023-04-09T13:25:53.455Z,2.50
2023-04-09T13:28:20.126Z,2.60
2023-04-09T13:30:53.587Z,2.67
2023-04-09T13:33:24.951Z,2.80
2023-04-09T13:35:59.144Z,2.75
2023-04-09T13:38:36.159Z,2.07
2023-04-09T13:41:08.399Z,3.08
2023-04-09T13:43:35.141Z,2.55
2023-04-09T13:46:02.911Z,2.60
2023-04-09T13:48:38.704Z,2.00
2023-04-09T13:51:09.086Z,3.90
2023-04-09T13:53:35.861Z,2.28
2023-04-09T13:56:02.557Z,1.98
2023-04-09T13:58:29.307Z,2.83
2023-04-09T14:00:56.082Z,2.15
2023-04-09T14:03:22.956Z,2.50
2023-04-09T14:05:49.673Z,1.83
2023-04-09T14:08:20.599Z,1.75
2023-04-09T14:10:47.290Z,2.15
2023-04-09T14:13:15.078Z,1.50
2023-04-09T14:15:41.891Z,2.15
2023-04-09T14:18:08.735Z,2.97
2023-04-09T14:20:35.644Z,2.03
2023-04-09T14:23:03.586Z,3.55
2023-04-09T14:25:31.136Z,2.20
2023-04-09T14:27:57.822Z,1.83
2023-04-09T14:30:24.740Z,1.50
2023-04-09T14:32:52.394Z,2.25
2023-04-09T14:35:19.165Z,2.45
2023-04-09T14:37:46.359Z,1.77
2023-04-09T14:40:16.307Z,2.53
2023-04-09T14:42:43.768Z,1.90
2023-04-09T14:45:10.826Z,1.95
2023-04-09T14:47:40.571Z,3.58
2023-04-09T14:50:07.454Z,1.98
2023-04-09T14:52:34.193Z,2.00
2023-04-09T14:55:10.172Z,2.33
2023-04-09T14:57:36.909Z,2.38
2023-04-09T15:00:09.932Z,3.15
2023-04-09T15:02:37.213Z,3.95
2023-04-09T15:05:05.743Z,1.40
2023-04-09T15:07:32.548Z,1.77
2023-04-09T15:10:03.290Z,1.73
2023-04-09T15:12:32.886Z,1.25
2023-04-09T15:14:59.589Z,2.20
2023-04-09T15:17:26.340Z,1.30
2023-04-09T15:19:53.647Z,1.90
2023-04-09T15:22:21.569Z,2.60
2023-04-09T15:24:49.727Z,1.70
2023-04-09T15:27:16.448Z,2.17
2023-04-09T15:29:43.157Z,1.90
2023-04-09T15:32:09.982Z,3.17
2023-04-09T15:34:42.681Z,1.30
2023-04-09T15:37:09.407Z,1.58
2023-04-09T15:39:36.084Z,2.00
2023-04-09T15:42:02.753Z,1.27
2023-04-09T15:44:29.439Z,2.65
2023-04-09T15:46:56.160Z,1.33
2023-04-09T15:49:24.375Z,2.38
2023-04-09T15:51:51.103Z,1.52
2023-04-09T15:54:17.771Z,2.55
2023-04-09T15:56:44.461Z,1.65
2023-04-09T15:59:11.126Z,3.20
2023-04-09T16:01:45.943Z,2.90
2023-04-09T16:04:12.735Z,4.95
2023-04-09T16:06:39.515Z,1.20
2023-04-09T16:09:06.382Z,2.05
2023-04-09T16:11:38.310Z,1.90
2023-04-09T16:14:08.130Z,1.15
2023-04-09T16:16:34.903Z,1.50
2023-04-09T16:19:08.009Z,1.90
2023-04-09T16:21:34.670Z,2.67
2023-04-09T16:24:01.460Z,1.50
2023-04-09T16:26:28.155Z,1.38
2023-04-09T16:28:55.196Z,2.20
2023-04-09T16:31:22.206Z,1.85
2023-04-09T16:33:49.085Z,1.00
2023-04-09T16:36:15.795Z,2.78
2023-04-09T16:38:42.537Z,1.65
2023-04-09T16:41:09.271Z,1.63
2023-04-09T16:43:36.005Z,1.33
2023-04-09T16:46:02.689Z,2.30
2023-04-09T16:48:29.514Z,2.88
2023-04-09T16:50:56.183Z,2.45
2023-04-09T16:53:27.502Z,1.63
2023-04-09T16:56:01.133Z,1.58
2023-04-09T16:58:28.103Z,2.53
2023-04-09T17:00:54.980Z,2.13
2023-04-09T17:03:21.772Z,2.08
2023-04-09T17:05:48.584Z,1.98
2023-04-09T17:08:18.401Z,2.33
2023-04-09T17:10:45.090Z,1.85
2023-04-09T17:13:11.824Z,1.58
2023-04-09T17:15:38.466Z,1.27
2023-04-09T17:18:09.640Z,2.78
2023-04-09T17:20:38.190Z,1.95
2023-04-09T17:23:04.930Z,1.30
2023-04-09T17:25:32.014Z,1.90
2023-04-09T17:28:02.091Z,1.52
2023-04-09T17:30:36.722Z,3.25
2023-04-09T17:33:06.000Z,3.55
2023-04-09T17:35:33.494Z,2.55
2023-04-09T17:38:00.916Z,2.15
2023-04-09T17:40:28.063Z,2.38
2023-04-09T17:42:55.117Z,1.42
2023-04-09T17:45:26.706Z,2.20
2023-04-09T17:47:54.388Z,2.13
2023-04-09T17:50:21.314Z,2.40
2023-04-09T17:52:47.989Z,2.42
2023-04-09T17:55:18.379Z,2.40
2023-04-09T17:57:45.421Z,2.08
2023-04-09T18:00:12.489Z,3.35
2023-04-09T18:02:45.147Z,2.00
2023-04-09T18:05:12.045Z,2.60
2023-04-09T18:07:44.779Z,2.50
2023-04-09T18:10:11.480Z,3.35
2023-04-09T18:12:38.371Z,2.63
2023-04-09T18:15:05.510Z,2.03
2023-04-09T18:17:32.535Z,2.95
2023-04-09T18:19:59.382Z,2.20
2023-04-09T18:22:26.197Z,2.50
2023-04-09T18:24:53.121Z,3.40
2023-04-09T18:27:19.969Z,1.92
2023-04-09T18:29:46.918Z,2.30
2023-04-09T18:32:15.089Z,3.63
2023-04-09T18:34:49.450Z,3.03
2023-04-09T18:37:16.221Z,2.47
2023-04-09T18:39:46.814Z,4.70
2023-04-09T18:42:18.675Z,5.60
2023-04-09T18:44:46.840Z,2.65
2023-04-09T18:47:19.964Z,4.30
2023-04-09T18:49:46.689Z,2.17
2023-04-09T18:52:14.579Z,3.22
2023-04-09T18:54:44.151Z,3.40
2023-04-09T18:57:16.309Z,2.13
2023-04-09T18:59:43.444Z,2.50
2023-04-09T19:02:10.463Z,2.55
2023-04-09T19:04:37.308Z,2.47
2023-04-09T19:07:05.277Z,2.03
2023-04-09T19:09:35.247Z,3.28
2023-04-09T19:12:02.148Z,4.60
2023-04-09T19:14:32.147Z,2.75
2023-04-09T19:16:59.146Z,3.83
2023-04-09T19:19:25.836Z,3.33
2023-04-09T19:21:52.654Z,2.92
2023-04-09T19:24:19.354Z,2.80
2023-04-09T19:26:46.097Z,3.90
2023-04-09T19:29:12.863Z,3.20
2023-04-09T19:31:40.601Z,2.40
2023-04-09T19:34:07.435Z,3.58
2023-04-09T19:36:35.207Z,3.05
2023-04-09T19:39:01.857Z,3.70
2023-04-09T19:41:28.626Z,3.08
2023-04-09T19:43:55.673Z,3.78
2023-04-09T19:46:26.245Z,3.65
2023-04-09T19:48:53.245Z,4.07
2023-04-09T19:51:20.698Z,3.75
2023-04-09T19:53:53.572Z,2.72
2023-04-09T19:56:20.373Z,2.33
2023-04-09T19:58:47.471Z,2.72
2023-04-09T20:01:14.332Z,2.70
2023-04-09T20:03:53.893Z,2.65
2023-04-09T20:06:23.434Z,4.10
2023-04-09T20:08:53.843Z,3.05
2023-04-09T20:11:20.685Z,3.78
2023-04-09T20:14:02.397Z,3.85
2023-04-09T20:16:30.519Z,2.97
2023-04-09T20:18:57.306Z,3.53
2023-04-09T20:21:24.021Z,2.50
2023-04-09T20:23:56.406Z,3.28
2023-04-09T20:26:23.146Z,3.15
2023-04-09T20:28:49.954Z,4.05
2023-04-09T20:31:16.754Z,4.20
2023-04-09T20:33:43.500Z,3.60
2023-04-09T20:36:17.106Z,3.20
2023-04-09T20:38:43.901Z,4.03
2023-04-09T20:41:10.544Z,2.97
2023-04-09T20:43:38.171Z,3.50
2023-04-09T20:46:05.429Z,6.13
2023-04-09T20:48:32.358Z,4.05
2023-04-09T20:50:58.984Z,3.30
2023-04-09T20:53:28.725Z,4.55
2023-04-09T20:55:58.296Z,4.07
2023-04-09T20:58:25.243Z,3.53
2023-04-09T21:00:52.039Z,4.53
2023-04-09T21:03:18.918Z,3.30
2023-04-09T21:05:53.715Z,2.83
2023-04-09T21:08:20.407Z,2.83
2023-04-09T21:10:51.436Z,4.90
2023-04-09T21:13:18.164Z,4.10
2023-04-09T21:15:44.831Z,3.28
2023-04-09T21:18:11.546Z,2.00
2023-04-09T21:20:42.672Z,4.32
2023-04-09T21:23:09.416Z,3.13
2023-04-09T21:25:36.090Z,2.58
2023-04-09T21:28:02.903Z,3.22
2023-04-09T21:30:29.572Z,3.03
2023-04-09T21:33:02.530Z,3.28
2023-04-09T21:35:29.252Z,3.17
2023-04-09T21:38:01.132Z,3.53
2023-04-09T21:40:27.913Z,2.88
2023-04-09T21:42:54.624Z,2.70
2023-04-09T21:45:21.347Z,1.95
2023-04-09T21:47:48.198Z,2.75
2023-04-09T21:50:15.206Z,2.70
2023-04-09T21:52:41.944Z,2.80
2023-04-09T21:55:08.725Z,3.50
2023-04-09T21:57:35.477Z,2.80
2023-04-09T22:00:02.380Z,4.63
2023-04-09T22:02:29.380Z,2.40
2023-04-09T22:05:04.678Z,2.17
2023-04-09T22:07:31.698Z,2.10
2023-04-09T22:10:03.182Z,3.10
2023-04-09T22:12:30.009Z,4.15
2023-04-09T22:14:57.093Z,3.40
2023-04-09T22:17:23.785Z,2.67
2023-04-09T22:19:50.574Z,2.88
2023-04-09T22:22:17.802Z,2.28
2023-04-09T22:24:44.566Z,3.50
2023-04-09T22:27:11.265Z,2.70
2023-04-09T22:29:41.537Z,2.67
2023-04-09T22:32:08.349Z,2.67
2023-04-09T22:34:35.127Z,2.42
2023-04-09T22:37:01.898Z,2.63
2023-04-09T22:39:28.611Z,3.47
2023-04-09T22:42:00.568Z,2.35
2023-04-09T22:44:27.470Z,3.75
2023-04-09T22:46:54.268Z,2.63
2023-04-09T22:49:21.147Z,2.70
2023-04-09T22:51:47.850Z,4.30
2023-04-09T22:54:14.620Z,3.50
2023-04-09T22:56:41.376Z,3.45
2023-04-09T22:59:09.013Z,2.70
2023-04-09T23:01:35.801Z,3.78
2023-04-09T23:04:02.657Z,3.00
2023-04-09T23:06:30.491Z,3.20
2023-04-09T23:09:03.231Z,2.55
2023-04-09T23:11:33.497Z,2.47
2023-04-09T23:14:01.432Z,2.55
2023-04-09T23:16:28.252Z,2.65
2023-04-09T23:18:55.205Z,4.13
2023-04-09T23:21:22.113Z,2.75
2023-04-09T23:23:49.061Z,2.75
2023-04-09T23:26:16.020Z,2.50
2023-04-09T23:28:42.860Z,3.65
2023-04-09T23:31:09.583Z,1.92
2023-04-09T23:33:36.329Z,1.95
2023-04-09T23:36:03.247Z,3.38
2023-04-09T23:38:32.951Z,2.47
2023-04-09T23:40:59.713Z,3.38
2023-04-09T23:43:26.583Z,2.47
2023-04-09T23:45:53.235Z,2.95
2023-04-09T23:48:19.962Z,4.10
2023-04-09T23:50:46.630Z,4.18
2023-04-09T23:53:20.768Z,3.92
2023-04-09T23:55:47.761Z,3.47
2023-04-09T23:58:14.646Z,3.08
